Time;durP1;ratioP1;P1;durP2;ratioP2;P2;SDS_P1;SDS_P2;PMS_P1;PMS_P2;Temp;Humidity;BMP_temperature;BMP_pressure;BME280_temperature;BME280_humidity;BME280_pressure;Samples;Min_cycle;Max_cycle;Signal;HPM_P1;HPM_P2
2022/01/03 00:00:21;;;;;;;6.53;3.15;;;;;;;;;;5059115;28;20044;-51
2022/01/03 00:02:47;;;;;;;3.80;2.97;;;;;;;;;;5061222;28;20045;-46
2022/01/03 00:05:13;;;;;;;5.13;3.15;;;;;;;;;;5058790;28;20036;-43
2022/01/03 00:07:41;;;;;;;7.65;3.60;;;;;;;;;;5061321;28;20040;-42
2022/01/03 00:10:08;;;;;;;4.75;3.33;;;;;;;;;;5060183;28;20106;-45
2022/01/03 00:12:34;;;;;;;5.75;2.90;;;;;;;;;;5062462;28;20157;-51
2022/01/03 00:15:00;;;;;;;7.82;3.58;;;;;;;;;;5062070;28;20504;-44
2022/01/03 00:17:26;;;;;;;5.90;3.33;;;;;;;;;;5059679;28;20191;-48
2022/01/03 00:19:52;;;;;;;5.25;2.97;;;;;;;;;;5062748;28;20492;-53
2022/01/03 00:22:21;;;;;;;6.00;3.22;;;;;;;;;;5058651;28;20040;-50
2022/01/03 00:25:06;;;;;;;6.47;3.25;;;;;;;;;;5060241;28;20503;-50
2022/01/03 00:27:41;;;;;;;4.10;3.00;;;;;;;;;;5060230;28;20518;-52
2022/01/03 00:30:07;;;;;;;5.22;3.28;;;;;;;;;;5058439;28;20486;-46
2022/01/03 00:32:36;;;;;;;7.90;3.42;;;;;;;;;;5059337;28;20294;-46
2022/01/03 00:35:02;;;;;;;7.85;3.70;;;;;;;;;;5054686;28;20036;-49
2022/01/03 00:37:28;;;;;;;6.43;3.53;;;;;;;;;;5054356;28;20033;-55
2022/01/03 00:39:54;;;;;;;6.40;3.38;;;;;;;;;;5054044;28;20087;-50
2022/01/03 00:42:19;;;;;;;6.90;3.30;;;;;;;;;;5053601;28;20040;-52
2022/01/03 00:44:46;;;;;;;7.03;3.33;;;;;;;;;;5057617;28;20132;-55
2022/01/03 00:47:12;;;;;;;6.80;3.15;;;;;;;;;;5056442;28;20111;-50
2022/01/03 00:49:40;;;;;;;5.18;2.92;;;;;;;;;;5057767;28;20364;-45
2022/01/03 00:52:06;;;;;;;4.97;3.30;;;;;;;;;;5057277;28;20051;-50
2022/01/03 00:54:32;;;;;;;5.18;3.38;;;;;;;;;;5055747;28;20064;-46
2022/01/03 00:57:04;;;;;;;7.85;3.38;;;;;;;;;;5058525;28;20041;-47
2022/01/03 00:59:32;;;;;;;8.30;3.33;;;;;;;;;;5053121;28;20063;-45
2022/01/03 01:02:01;;;;;;;10.13;3.58;;;;;;;;;;5060665;28;20422;-46
2022/01/03 01:04:27;;;;;;;3.90;2.90;;;;;;;;;;5056284;28;20064;-49
2022/01/03 01:06:54;;;;;;;5.88;3.03;;;;;;;;;;5056873;28;20115;-47
2022/01/03 01:09:21;;;;;;;7.22;3.00;;;;;;;;;;5057649;28;20036;-52
2022/01/03 01:11:47;;;;;;;4.93;2.92;;;;;;;;;;5053339;28;20500;-42
2022/01/03 01:14:14;;;;;;;5.72;2.60;;;;;;;;;;5057654;28;20277;-49
2022/01/03 01:16:40;;;;;;;4.40;2.67;;;;;;;;;;5055103;28;20068;-48
2022/01/03 01:19:06;;;;;;;6.00;3.13;;;;;;;;;;5055009;28;20044;-45
2022/01/03 01:21:33;;;;;;;5.65;3.08;;;;;;;;;;5057325;28;20041;-46
2022/01/03 01:23:59;;;;;;;6.60;3.38;;;;;;;;;;5054816;28;20042;-47
2022/01/03 01:29:10;;;;;;;3.55;3.20;;;;;;;;;;5054807;28;20047;-50
2022/01/03 01:31:38;;;;;;;7.88;3.72;;;;;;;;;;5054813;28;20039;-49
2022/01/03 01:34:06;;;;;;;5.03;3.55;;;;;;;;;;5056449;28;20419;-48
2022/01/03 01:36:33;;;;;;;5.35;3.42;;;;;;;;;;5052667;28;20045;-42
2022/01/03 01:39:08;;;;;;;5.82;3.70;;;;;;;;;;5058310;28;20574;-45
2022/01/03 01:41:38;;;;;;;7.70;3.95;;;;;;;;;;5053607;28;20051;-49
2022/01/03 01:44:07;;;;;;;5.05;3.60;;;;;;;;;;5056171;28;20048;-47
2022/01/03 01:46:33;;;;;;;4.32;3.40;;;;;;;;;;5055185;28;20072;-52
2022/01/03 01:49:02;;;;;;;9.20;4.47;;;;;;;;;;5053095;28;20050;-47
2022/01/03 01:51:30;;;;;;;6.60;3.63;;;;;;;;;;5057312;28;20136;-45
2022/01/03 01:53:56;;;;;;;7.32;3.70;;;;;;;;;;5053000;28;20107;-53
2022/01/03 01:56:27;;;;;;;7.18;2.80;;;;;;;;;;5056511;28;20052;-50
2022/01/03 01:59:09;;;;;;;4.90;3.00;;;;;;;;;;5055117;28;20048;-51
2022/01/03 02:01:52;;;;;;;4.53;2.92;;;;;;;;;;5054316;28;20499;-44
2022/01/03 02:04:23;;;;;;;6.28;2.60;;;;;;;;;;5053263;28;20604;-52
2022/01/03 02:06:49;;;;;;;5.63;2.38;;;;;;;;;;5052981;28;20045;-45
2022/01/03 02:09:21;;;;;;;3.88;2.17;;;;;;;;;;5056465;28;20044;-46
2022/01/03 02:11:50;;;;;;;4.35;2.33;;;;;;;;;;5053310;28;20033;-50
2022/01/03 02:14:17;;;;;;;3.72;3.05;;;;;;;;;;5055820;28;20042;-54
2022/01/03 02:16:43;;;;;;;3.85;2.08;;;;;;;;;;5055317;28;20040;-54
2022/01/03 02:19:10;;;;;;;3.10;2.53;;;;;;;;;;5051760;28;20036;-49
2022/01/03 02:21:36;;;;;;;3.05;1.90;;;;;;;;;;5056875;28;20032;-47
2022/01/03 02:24:03;;;;;;;3.22;2.08;;;;;;;;;;5053386;28;20492;-53
2022/01/03 02:26:29;;;;;;;3.03;1.85;;;;;;;;;;5056451;28;20033;-50
2022/01/03 02:28:55;;;;;;;1.90;1.70;;;;;;;;;;5055513;28;20098;-48
2022/01/03 02:31:22;;;;;;;3.70;1.90;;;;;;;;;;5053538;28;20036;-47
2022/01/03 02:33:48;;;;;;;2.30;1.67;;;;;;;;;;5056950;28;20055;-49
2022/01/03 02:36:14;;;;;;;2.50;1.50;;;;;;;;;;5053421;28;20400;-47
2022/01/03 02:38:40;;;;;;;3.20;1.50;;;;;;;;;;5055274;28;20445;-45
2022/01/03 02:41:06;;;;;;;1.63;1.40;;;;;;;;;;5055660;28;20213;-49
2022/01/03 02:43:31;;;;;;;1.45;1.13;;;;;;;;;;5053765;28;20080;-49
2022/01/03 02:45:57;;;;;;;1.92;1.33;;;;;;;;;;5057243;28;20419;-49
2022/01/03 02:48:23;;;;;;;4.95;1.60;;;;;;;;;;5052007;28;20122;-45
2022/01/03 02:50:49;;;;;;;2.08;1.10;;;;;;;;;;5054457;28;20251;-50
2022/01/03 02:53:15;;;;;;;1.23;1.10;;;;;;;;;;5055052;28;20521;-46
2022/01/03 02:55:41;;;;;;;2.72;1.20;;;;;;;;;;5051609;28;20044;-45
2022/01/03 02:58:07;;;;;;;2.65;1.00;;;;;;;;;;5056251;28;20741;-46
2022/01/03 03:00:44;;;;;;;1.98;1.25;;;;;;;;;;5051679;28;20132;-52
2022/01/03 03:03:09;;;;;;;2.55;1.20;;;;;;;;;;5053568;28;20124;-49
2022/01/03 03:05:35;;;;;;;3.00;1.23;;;;;;;;;;5053856;28;20033;-42
2022/01/03 03:08:01;;;;;;;1.40;1.30;;;;;;;;;;5053887;28;20032;-46
2022/01/03 03:10:27;;;;;;;2.03;1.40;;;;;;;;;;5055923;28;20132;-45
2022/01/03 03:12:52;;;;;;;3.28;1.25;;;;;;;;;;5052554;28;20102;-47
2022/01/03 03:15:18;;;;;;;3.78;1.83;;;;;;;;;;5055553;28;20045;-48
2022/01/03 03:17:45;;;;;;;1.63;1.35;;;;;;;;;;5053228;28;20037;-44
2022/01/03 03:20:19;;;;;;;3.45;1.50;;;;;;;;;;5053075;28;20037;-48
2022/01/03 03:22:49;;;;;;;2.63;1.50;;;;;;;;;;5055476;28;20344;-48
2022/01/03 03:25:23;;;;;;;3.03;1.95;;;;;;;;;;5050658;28;20122;-46
2022/01/03 03:27:55;;;;;;;2.50;1.80;;;;;;;;;;5056237;28;20123;-47
2022/01/03 03:30:24;;;;;;;4.40;1.90;;;;;;;;;;5051228;28;20051;-50
2022/01/03 03:32:51;;;;;;;3.47;1.60;;;;;;;;;;5054310;28;20137;-42
2022/01/03 03:35:18;;;;;;;3.28;1.80;;;;;;;;;;5055440;28;20567;-51
2022/01/03 03:37:44;;;;;;;2.17;1.98;;;;;;;;;;5050772;28;20044;-41
2022/01/03 03:40:10;;;;;;;2.75;1.88;;;;;;;;;;5057527;28;20450;-44
2022/01/03 03:42:36;;;;;;;3.22;2.00;;;;;;;;;;5052457;28;20059;-46
2022/01/03 03:45:03;;;;;;;5.93;2.25;;;;;;;;;;5055702;28;20507;-40
2022/01/03 03:47:29;;;;;;;2.80;1.90;;;;;;;;;;5054577;28;20037;-45
2022/01/03 03:49:55;;;;;;;3.30;2.03;;;;;;;;;;5052558;28;20036;-44
2022/01/03 03:52:20;;;;;;;2.42;2.20;;;;;;;;;;5057132;28;20044;-42
2022/01/03 03:54:46;;;;;;;4.03;2.15;;;;;;;;;;5052171;28;20052;-45
2022/01/03 03:57:12;;;;;;;5.93;2.33;;;;;;;;;;5055522;28;20048;-50
2022/01/03 03:59:38;;;;;;;5.95;2.00;;;;;;;;;;5053766;28;20048;-46
2022/01/03 04:02:05;;;;;;;5.20;2.75;;;;;;;;;;5052912;28;20518;-50
2022/01/03 04:04:31;;;;;;;3.97;2.08;;;;;;;;;;5056280;28;20044;-50
2022/01/03 04:06:57;;;;;;;4.90;2.15;;;;;;;;;;5053375;28;20119;-42
2022/01/03 04:09:22;;;;;;;3.42;1.75;;;;;;;;;;5055142;28;20095;-42
2022/01/03 04:11:48;;;;;;;4.35;2.03;;;;;;;;;;5057095;28;20131;-44
2022/01/03 04:14:14;;;;;;;4.25;2.13;;;;;;;;;;5056133;28;20048;-48
2022/01/03 04:16:39;;;;;;;3.67;1.60;;;;;;;;;;5060196;28;20044;-50
2022/01/03 04:19:05;;;;;;;4.85;1.83;;;;;;;;;;5057678;28;20036;-45
2022/01/03 04:21:32;;;;;;;4.15;1.42;;;;;;;;;;5056485;28;20124;-44
2022/01/03 04:23:58;;;;;;;3.28;2.00;;;;;;;;;;5058012;28;20037;-47
2022/01/03 04:26:24;;;;;;;7.45;2.13;;;;;;;;;;5056052;28;20048;-44
2022/01/03 04:28:49;;;;;;;3.00;2.10;;;;;;;;;;5059593;28;20381;-45
2022/01/03 04:31:15;;;;;;;2.88;1.48;;;;;;;;;;5055771;28;20047;-41
2022/01/03 04:33:42;;;;;;;4.13;1.75;;;;;;;;;;5056770;28;20035;-48
2022/01/03 04:36:09;;;;;;;4.05;2.00;;;;;;;;;;5057995;28;20094;-49
2022/01/03 04:38:36;;;;;;;2.88;1.30;;;;;;;;;;5056197;28;20109;-43
2022/01/03 04:41:03;;;;;;;4.60;2.00;;;;;;;;;;5057609;28;20048;-51
2022/01/03 04:43:28;;;;;;;4.95;1.67;;;;;;;;;;5051453;28;20396;-46
2022/01/03 04:45:57;;;;;;;4.03;1.50;;;;;;;;;;5057574;28;20107;-47
2022/01/03 04:48:24;;;;;;;1.40;0.98;;;;;;;;;;5054909;28;20433;-47
2022/01/03 04:50:50;;;;;;;3.25;1.02;;;;;;;;;;5053089;28;20047;-45
2022/01/03 04:53:16;;;;;;;0.90;0.70;;;;;;;;;;5058922;28;20040;-44
2022/01/03 04:55:41;;;;;;;2.85;0.60;;;;;;;;;;5056031;28;20045;-50
2022/01/03 04:58:10;;;;;;;2.17;0.57;;;;;;;;;;5057424;28;20060;-44
2022/01/03 05:00:36;;;;;;;2.17;0.30;;;;;;;;;;5054848;28;20045;-45
2022/01/03 05:03:02;;;;;;;0.70;0.60;;;;;;;;;;5054690;28;20063;-47
2022/01/03 05:05:27;;;;;;;2.35;0.30;;;;;;;;;;5058064;28;20539;-53
2022/01/03 05:07:53;;;;;;;4.32;0.30;;;;;;;;;;5054888;28;20037;-53
2022/01/03 05:10:19;;;;;;;2.53;0.30;;;;;;;;;;5057770;28;20052;-43
2022/01/03 05:12:45;;;;;;;0.63;0.20;;;;;;;;;;5057395;28;20120;-41
2022/01/03 05:15:12;;;;;;;0.80;0.20;;;;;;;;;;5056773;28;20052;-43
2022/01/03 05:17:37;;;;;;;0.60;0.20;;;;;;;;;;5059658;28;20044;-46
2022/01/03 05:20:04;;;;;;;1.10;0.20;;;;;;;;;;5056089;28;20563;-45
2022/01/03 05:22:29;;;;;;;0.65;0.15;;;;;;;;;;5056731;28;20045;-47
2022/01/03 05:24:55;;;;;;;0.10;0.10;;;;;;;;;;5056475;28;20068;-50
2022/01/03 05:27:21;;;;;;;0.60;0.20;;;;;;;;;;5054298;28;20040;-45
2022/01/03 05:29:46;;;;;;;2.03;0.22;;;;;;;;;;5057615;28;20041;-43
2022/01/03 05:32:12;;;;;;;0.20;0.20;;;;;;;;;;5055045;28;20620;-51
2022/01/03 05:34:38;;;;;;;1.75;0.20;;;;;;;;;;5056445;28;20052;-46
2022/01/03 05:37:04;;;;;;;1.15;0.40;;;;;;;;;;5057085;28;20040;-42
2022/01/03 05:39:29;;;;;;;1.70;0.40;;;;;;;;;;5054404;28;20476;-49
2022/01/03 05:41:55;;;;;;;0.95;0.30;;;;;;;;;;5057897;28;20053;-44
2022/01/03 05:44:21;;;;;;;3.08;0.40;;;;;;;;;;5051931;28;20125;-47
2022/01/03 05:46:46;;;;;;;1.13;0.30;;;;;;;;;;5058150;28;20578;-49
2022/01/03 05:49:12;;;;;;;0.82;0.20;;;;;;;;;;5056470;28;20048;-47
2022/01/03 05:51:38;;;;;;;0.30;0.25;;;;;;;;;;5051831;28;20116;-44
2022/01/03 05:54:05;;;;;;;1.83;0.40;;;;;;;;;;5058100;28;20033;-44
2022/01/03 05:56:31;;;;;;;1.27;0.35;;;;;;;;;;5051635;28;20064;-44
2022/01/03 05:58:57;;;;;;;2.00;0.57;;;;;;;;;;5056702;28;20345;-43
2022/01/03 06:01:24;;;;;;;1.90;0.60;;;;;;;;;;5054746;28;20064;-45
2022/01/03 06:03:59;;;;;;;1.65;0.40;;;;;;;;;;5052876;28;20040;-46
2022/01/03 06:06:53;;;;;;;1.70;0.60;;;;;;;;;;5056560;28;20412;-51
2022/01/03 06:09:17;;;;;;;2.47;0.70;;;;;;;;;;5051150;28;20306;-47
2022/01/03 06:11:43;;;;;;;4.22;0.80;;;;;;;;;;5057017;28;20037;-44
2022/01/03 06:14:09;;;;;;;4.78;1.08;;;;;;;;;;5054856;28;20327;-48
2022/01/03 06:16:34;;;;;;;4.75;0.98;;;;;;;;;;5054090;28;20052;-46
2022/01/03 06:19:00;;;;;;;2.83;0.95;;;;;;;;;;5056891;28;20419;-41
2022/01/03 06:21:26;;;;;;;2.42;1.05;;;;;;;;;;5051645;28;20058;-48
2022/01/03 06:23:51;;;;;;;4.45;1.00;;;;;;;;;;5057506;28;20037;-48
2022/01/03 06:26:17;;;;;;;7.70;1.38;;;;;;;;;;5052994;28;20044;-51
2022/01/03 06:28:43;;;;;;;4.75;1.33;;;;;;;;;;5054133;28;20091;-45
2022/01/03 06:31:08;;;;;;;6.22;1.55;;;;;;;;;;5056544;28;20392;-42
2022/01/03 06:33:34;;;;;;;5.57;2.30;;;;;;;;;;5050939;28;20551;-51
2022/01/03 06:36:00;;;;;;;9.55;2.50;;;;;;;;;;5058275;28;20040;-40
2022/01/03 06:38:26;;;;;;;8.15;1.95;;;;;;;;;;5052696;28;20044;-45
2022/01/03 06:40:52;;;;;;;8.25;1.90;;;;;;;;;;5056015;28;20045;-43
2022/01/03 06:43:18;;;;;;;8.98;1.70;;;;;;;;;;5055229;28;20471;-45
2022/01/03 06:45:44;;;;;;;7.32;1.92;;;;;;;;;;5052245;28;20061;-48
2022/01/03 06:48:09;;;;;;;6.05;1.98;;;;;;;;;;5057311;28;20048;-51
2022/01/03 06:50:36;;;;;;;5.13;1.35;;;;;;;;;;5052528;28;20514;-44
2022/01/03 06:53:02;;;;;;;9.35;1.63;;;;;;;;;;5056202;28;20032;-47
2022/01/03 06:55:28;;;;;;;7.07;1.83;;;;;;;;;;5054305;28;20053;-48
2022/01/03 06:57:53;;;;;;;6.18;1.83;;;;;;;;;;5052138;28;20091;-43
2022/01/03 07:00:19;;;;;;;9.52;2.35;;;;;;;;;;5040833;28;20247;-49
2022/01/03 07:02:45;;;;;;;12.10;2.40;;;;;;;;;;5029639;28;20108;-42
2022/01/03 07:05:11;;;;;;;7.85;1.50;;;;;;;;;;5045111;28;20044;-46
2022/01/03 07:07:37;;;;;;;5.13;1.42;;;;;;;;;;5054574;28;20045;-42
2022/01/03 07:10:04;;;;;;;5.88;1.88;;;;;;;;;;5053077;28;20388;-47
2022/01/03 07:12:29;;;;;;;9.90;1.55;;;;;;;;;;5057997;28;20082;-48
2022/01/03 07:20:09;;;;;;;6.60;1.67;;;;;;;;;;5054516;28;20150;-46
2022/01/03 07:22:39;;;;;;;7.47;1.42;;;;;;;;;;5056168;28;20049;-44
2022/01/03 07:25:05;;;;;;;12.55;1.92;;;;;;;;;;5053523;28;20036;-53
2022/01/03 07:27:31;;;;;;;9.68;2.20;;;;;;;;;;5051152;28;20163;-40
2022/01/03 07:29:57;;;;;;;8.35;1.98;;;;;;;;;;5054158;28;20575;-45
2022/01/03 07:32:22;;;;;;;7.68;2.38;;;;;;;;;;5053109;28;20145;-40
2022/01/03 07:34:48;;;;;;;11.30;1.98;;;;;;;;;;5052191;28;20102;-41
2022/01/03 07:37:14;;;;;;;7.80;1.45;;;;;;;;;;5055955;28;20048;-44
2022/01/03 07:39:39;;;;;;;6.35;1.48;;;;;;;;;;5050759;28;20049;-47
2022/01/03 07:42:06;;;;;;;6.50;1.50;;;;;;;;;;5055719;28;20458;-49
2022/01/03 07:44:31;;;;;;;11.63;2.90;;;;;;;;;;5050593;28;20531;-43
2022/01/03 07:46:57;;;;;;;10.52;1.92;;;;;;;;;;5054717;28;20028;-44
2022/01/03 07:49:23;;;;;;;7.75;1.80;;;;;;;;;;5059752;28;20558;-51
2022/01/03 07:51:49;;;;;;;10.05;1.60;;;;;;;;;;5055480;28;20377;-44
2022/01/03 07:54:14;;;;;;;7.05;2.13;;;;;;;;;;5059632;28;20128;-49
2022/01/03 07:56:40;;;;;;;9.60;1.80;;;;;;;;;;5057107;28;20051;-44
2022/01/03 07:59:06;;;;;;;10.82;2.10;;;;;;;;;;5056489;28;20049;-40
2022/01/03 08:01:33;;;;;;;10.15;2.53;;;;;;;;;;5059845;28;20044;-45
2022/01/03 08:03:58;;;;;;;11.80;2.42;;;;;;;;;;5057060;28;20039;-47
2022/01/03 08:06:24;;;;;;;8.55;3.13;;;;;;;;;;5058201;28;20135;-46
2022/01/03 08:08:50;;;;;;;14.88;3.05;;;;;;;;;;5057960;28;20037;-47
2022/01/03 08:11:16;;;;;;;14.77;3.08;;;;;;;;;;5055937;28;20067;-48
2022/01/03 08:13:42;;;;;;;12.73;3.00;;;;;;;;;;5059459;28;20579;-48
2022/01/03 08:16:09;;;;;;;9.82;3.60;;;;;;;;;;5056102;28;20048;-48
2022/01/03 08:18:34;;;;;;;13.63;3.20;;;;;;;;;;5055044;28;20048;-48
2022/01/03 08:21:00;;;;;;;11.02;2.70;;;;;;;;;;5055895;28;20037;-44
2022/01/03 08:23:26;;;;;;;6.30;2.00;;;;;;;;;;5055233;28;20251;-43
2022/01/03 08:25:52;;;;;;;8.98;2.30;;;;;;;;;;5055281;28;20045;-45
2022/01/03 08:28:17;;;;;;;6.88;1.75;;;;;;;;;;5050323;28;20068;-51
2022/01/03 08:30:43;;;;;;;6.20;1.60;;;;;;;;;;5059195;28;20442;-46
2022/01/03 08:33:09;;;;;;;7.55;1.88;;;;;;;;;;5055741;28;20053;-46
2022/01/03 08:35:35;;;;;;;6.78;1.88;;;;;;;;;;5056382;28;20072;-43
2022/01/03 08:38:01;;;;;;;8.40;2.85;;;;;;;;;;5055049;28;20028;-49
2022/01/03 08:40:27;;;;;;;11.57;2.90;;;;;;;;;;5053266;28;20445;-47
2022/01/03 08:42:53;;;;;;;11.88;3.10;;;;;;;;;;5056041;28;20040;-44
2022/01/03 08:45:19;;;;;;;10.60;3.45;;;;;;;;;;5052981;28;20432;-46
2022/01/03 08:47:45;;;;;;;10.10;4.70;;;;;;;;;;5054146;28;20040;-46
2022/01/03 08:50:12;;;;;;;14.30;4.00;;;;;;;;;;5056004;28;20124;-45
2022/01/03 08:52:38;;;;;;;17.83;7.18;;;;;;;;;;5052753;28;20061;-48
2022/01/03 08:55:05;;;;;;;11.90;4.22;;;;;;;;;;5059576;28;20037;-45
2022/01/03 08:57:30;;;;;;;6.63;2.60;;;;;;;;;;5052932;28;20072;-50
2022/01/03 08:59:56;;;;;;;10.75;3.00;;;;;;;;;;5056219;28;20052;-47
2022/01/03 09:02:22;;;;;;;9.80;2.60;;;;;;;;;;5056736;28;20049;-50
2022/01/03 09:04:48;;;;;;;10.88;2.58;;;;;;;;;;5052854;28;20124;-46
2022/01/03 09:07:14;;;;;;;10.98;2.38;;;;;;;;;;5056821;28;20419;-48
2022/01/03 09:09:40;;;;;;;15.40;2.58;;;;;;;;;;5053981;28;20134;-46
2022/01/03 09:12:07;;;;;;;10.15;2.42;;;;;;;;;;5054602;28;20823;-48
2022/01/03 09:14:34;;;;;;;8.32;2.25;;;;;;;;;;5055044;28;20105;-50
2022/01/03 09:16:59;;;;;;;10.35;2.42;;;;;;;;;;5054225;28;20033;-49
2022/01/03 09:19:26;;;;;;;17.38;2.67;;;;;;;;;;5055682;28;20064;-44
2022/01/03 09:21:59;;;;;;;12.10;2.42;;;;;;;;;;5054812;28;20033;-46
2022/01/03 09:24:42;;;;;;;9.35;2.05;;;;;;;;;;5055527;28;20270;-46
2022/01/03 09:29:54;;;;;;;9.80;2.50;;;;;;;;;;5053488;28;20040;-44
2022/01/03 09:32:19;;;;;;;9.70;1.85;;;;;;;;;;5058328;28;20048;-49
2022/01/03 09:34:45;;;;;;;14.07;2.50;;;;;;;;;;5052534;28;20487;-50
2022/01/03 09:37:12;;;;;;;18.30;5.00;;;;;;;;;;5056281;28;20098;-42
2022/01/03 09:39:38;;;;;;;18.10;5.30;;;;;;;;;;5052729;28;20037;-48
2022/01/03 09:42:06;;;;;;;17.27;5.15;;;;;;;;;;5057460;28;20123;-44
2022/01/03 09:44:34;;;;;;;17.30;4.88;;;;;;;;;;5053821;28;20048;-48
2022/01/03 09:47:02;;;;;;;12.15;2.60;;;;;;;;;;5052955;28;20123;-50
2022/01/03 09:49:33;;;;;;;17.02;3.10;;;;;;;;;;5054864;28;20045;-42
2022/01/03 09:52:00;;;;;;;12.43;2.50;;;;;;;;;;5055058;28;20340;-51
2022/01/03 09:54:26;;;;;;;12.65;3.10;;;;;;;;;;5053185;28;20120;-51
2022/01/03 09:56:52;;;;;;;13.35;2.50;;;;;;;;;;5055423;28;20465;-47
2022/01/03 09:59:18;;;;;;;12.77;3.28;;;;;;;;;;5051315;28;20488;-53
2022/01/03 10:01:45;;;;;;;14.20;3.47;;;;;;;;;;5038054;28;20064;-50
2022/01/03 10:04:14;;;;;;;10.77;2.90;;;;;;;;;;5054630;28;20060;-50
2022/01/03 10:06:40;;;;;;;10.02;3.08;;;;;;;;;;5053126;28;20060;-49
2022/01/03 10:09:06;;;;;;;12.18;3.53;;;;;;;;;;5056539;28;21946;-45
2022/01/03 10:11:32;;;;;;;10.93;4.18;;;;;;;;;;5051048;28;20061;-51
2022/01/03 10:13:59;;;;;;;13.95;3.45;;;;;;;;;;5056633;28;20427;-51
2022/01/03 10:16:25;;;;;;;14.30;4.50;;;;;;;;;;5051108;28;20056;-48
2022/01/03 10:18:50;;;;;;;11.93;3.63;;;;;;;;;;5054412;28;20064;-46
2022/01/03 10:21:36;;;;;;;15.00;3.92;;;;;;;;;;5054425;28;20068;-52
2022/01/03 10:24:03;;;;;;;13.05;3.72;;;;;;;;;;5049786;28;20575;-51
2022/01/03 10:26:28;;;;;;;10.35;3.75;;;;;;;;;;5053780;28;20052;-48
2022/01/03 10:29:11;;;;;;;13.25;3.53;;;;;;;;;;5053474;28;20041;-51
2022/01/03 10:31:42;;;;;;;12.95;3.47;;;;;;;;;;5049732;28;20815;-48
2022/01/03 10:34:10;;;;;;;12.13;3.78;;;;;;;;;;5055114;28;20099;-51
2022/01/03 10:36:37;;;;;;;11.50;3.35;;;;;;;;;;5052808;28;20151;-49
2022/01/03 10:39:16;;;;;;;9.27;3.40;;;;;;;;;;5054054;28;20621;-50
2022/01/03 10:41:44;;;;;;;9.70;3.50;;;;;;;;;;5051983;28;20095;-52
2022/01/03 10:44:10;;;;;;;12.27;3.40;;;;;;;;;;5055294;28;20041;-50
2022/01/03 10:46:37;;;;;;;11.05;3.40;;;;;;;;;;5051343;28;20659;-52
2022/01/03 10:49:07;;;;;;;13.13;3.97;;;;;;;;;;5052108;28;20040;-46
2022/01/03 10:51:33;;;;;;;9.43;3.30;;;;;;;;;;5057165;28;20086;-53
2022/01/03 10:53:59;;;;;;;12.32;3.78;;;;;;;;;;5055056;28;20442;-48
2022/01/03 10:56:31;;;;;;;12.55;3.53;;;;;;;;;;5056702;28;20068;-51
2022/01/03 10:58:59;;;;;;;11.27;3.53;;;;;;;;;;5054028;28;20056;-51
2022/01/03 11:01:30;;;;;;;10.52;3.35;;;;;;;;;;5052604;28;20504;-48
2022/01/03 11:03:59;;;;;;;8.52;3.50;;;;;;;;;;5057970;28;20401;-52
2022/01/03 11:06:47;;;;;;;12.35;4.72;;;;;;;;;;5049328;28;20131;-53
2022/01/03 11:11:58;;;;;;;10.95;3.85;;;;;;;;;;5051495;28;20704;-49
2022/01/03 11:14:33;;;;;;;11.02;3.63;;;;;;;;;;5052348;28;20098;-55
2022/01/03 11:16:59;;;;;;;13.45;3.90;;;;;;;;;;5053184;28;20037;-50
2022/01/03 11:19:42;;;;;;;11.05;4.15;;;;;;;;;;5051799;28;20049;-49
2022/01/03 11:22:08;;;;;;;6.07;3.70;;;;;;;;;;5054451;28;20041;-49
2022/01/03 11:24:47;;;;;;;9.68;3.33;;;;;;;;;;5051743;28;20056;-47
2022/01/03 11:27:12;;;;;;;10.43;3.63;;;;;;;;;;5051306;28;20098;-49
2022/01/03 11:29:38;;;;;;;9.70;3.42;;;;;;;;;;5052252;28;20041;-48
2022/01/03 11:32:04;;;;;;;12.80;3.85;;;;;;;;;;5055204;28;20045;-46
2022/01/03 11:34:30;;;;;;;12.07;4.32;;;;;;;;;;5053667;28;20544;-46
2022/01/03 11:36:57;;;;;;;7.90;3.40;;;;;;;;;;5051282;28;20049;-50
2022/01/03 11:39:23;;;;;;;13.13;3.70;;;;;;;;;;5056164;28;20045;-47
2022/01/03 11:41:50;;;;;;;10.45;3.58;;;;;;;;;;5051837;28;20094;-53
2022/01/03 11:44:16;;;;;;;14.88;4.28;;;;;;;;;;5055414;28;20068;-47
2022/01/03 11:46:45;;;;;;;7.82;3.05;;;;;;;;;;5055816;28;20400;-50
2022/01/03 11:49:10;;;;;;;14.27;4.68;;;;;;;;;;5052539;28;20037;-47
2022/01/03 11:51:37;;;;;;;14.52;4.47;;;;;;;;;;5058396;28;20338;-51
2022/01/03 11:54:04;;;;;;;14.00;3.97;;;;;;;;;;5055451;28;20028;-47
2022/01/03 11:56:32;;;;;;;9.85;3.38;;;;;;;;;;5057048;28;20033;-49
2022/01/03 12:04:25;;;;;;;9.52;3.80;;;;;;;;;;5057716;28;20515;-52
2022/01/03 12:07:09;;;;;;;13.98;3.85;;;;;;;;;;5052817;28;20088;-48
2022/01/03 12:09:37;;;;;;;13.98;3.67;;;;;;;;;;5056128;28;20446;-47
2022/01/03 12:12:03;;;;;;;11.48;3.20;;;;;;;;;;5054147;28;20111;-49
2022/01/03 12:14:43;;;;;;;14.40;3.50;;;;;;;;;;5050294;28;20056;-50
2022/01/03 12:17:10;;;;;;;13.82;3.08;;;;;;;;;;5050382;28;20102;-51
2022/01/03 12:19:42;;;;;;;11.77;3.13;;;;;;;;;;5052432;28;20548;-54
2022/01/03 12:22:11;;;;;;;13.45;3.65;;;;;;;;;;5058074;28;20043;-44
2022/01/03 12:25:02;;;;;;;13.55;3.58;;;;;;;;;;5054034;28;20044;-46
2022/01/03 12:27:32;;;;;;;5.88;2.20;;;;;;;;;;5055836;28;20045;-46
2022/01/03 12:30:09;;;;;;;10.48;3.40;;;;;;;;;;5055887;28;20123;-51
2022/01/03 12:32:36;;;;;;;9.48;3.25;;;;;;;;;;5059081;28;20474;-45
2022/01/03 12:35:08;;;;;;;13.85;4.22;;;;;;;;;;5058831;28;20054;-50
2022/01/03 12:37:35;;;;;;;8.45;2.78;;;;;;;;;;5055386;28;20040;-51
2022/01/03 12:40:04;;;;;;;11.82;3.00;;;;;;;;;;5062461;28;20400;-53
2022/01/03 12:42:56;;;;;;;12.90;3.15;;;;;;;;;;5057174;28;20087;-45
2022/01/03 12:45:28;;;;;;;11.07;2.97;;;;;;;;;;5058169;28;20518;-48
2022/01/03 12:47:54;;;;;;;10.70;2.55;;;;;;;;;;5058160;28;20041;-50
2022/01/03 12:50:28;;;;;;;10.27;3.05;;;;;;;;;;5057883;28;20033;-45
2022/01/03 12:52:54;;;;;;;10.88;3.00;;;;;;;;;;5060096;28;20522;-47
2022/01/03 12:55:38;;;;;;;9.55;3.45;;;;;;;;;;5054884;28;20056;-52
2022/01/03 12:58:24;;;;;;;6.38;2.45;;;;;;;;;;5057364;28;20048;-49
2022/01/03 13:00:58;;;;;;;11.27;2.60;;;;;;;;;;5056108;28;20044;-49
2022/01/03 13:03:29;;;;;;;9.60;2.92;;;;;;;;;;5057403;28;20033;-47
2022/01/03 13:06:06;;;;;;;10.00;3.03;;;;;;;;;;5057961;28;20715;-50
2022/01/03 13:08:33;;;;;;;7.88;2.88;;;;;;;;;;5055957;28;20524;-47
2022/01/03 13:11:06;;;;;;;8.40;2.50;;;;;;;;;;5058170;28;20047;-43
2022/01/03 13:13:33;;;;;;;10.27;2.67;;;;;;;;;;5054866;28;20113;-50
2022/01/03 13:15:58;;;;;;;8.05;2.22;;;;;;;;;;5060733;28;20067;-47
2022/01/03 13:18:24;;;;;;;9.55;2.90;;;;;;;;;;5056562;28;20102;-52
2022/01/03 13:21:00;;;;;;;10.80;2.60;;;;;;;;;;5057757;28;20120;-50
2022/01/03 13:23:26;;;;;;;13.88;2.60;;;;;;;;;;5056238;28;20037;-48
2022/01/03 13:26:05;;;;;;;8.15;2.05;;;;;;;;;;5054750;28;20690;-50
2022/01/03 13:28:30;;;;;;;8.73;2.30;;;;;;;;;;5054702;28;20088;-45
2022/01/03 13:31:00;;;;;;;10.40;2.38;;;;;;;;;;5055066;28;20912;-45
2022/01/03 13:33:26;;;;;;;9.00;2.60;;;;;;;;;;5058304;28;20487;-47
2022/01/03 13:36:02;;;;;;;9.52;2.75;;;;;;;;;;5055972;28;20060;-47
2022/01/03 13:38:28;;;;;;;7.90;2.67;;;;;;;;;;5052021;28;20037;-51
2022/01/03 13:40:55;;;;;;;8.88;2.60;;;;;;;;;;5059804;28;20120;-49
2022/01/03 13:43:27;;;;;;;10.05;2.78;;;;;;;;;;5052290;28;20078;-47
2022/01/03 13:51:09;;;;;;;8.90;2.22;;;;;;;;;;5055806;28;20444;-49
2022/01/03 13:53:35;;;;;;;10.48;3.28;;;;;;;;;;5056738;28;20036;-46
2022/01/03 13:56:00;;;;;;;8.93;2.60;;;;;;;;;;5055533;28;20047;-50
2022/01/03 13:58:26;;;;;;;8.23;2.38;;;;;;;;;;5058046;28;20083;-46
2022/01/03 14:00:59;;;;;;;8.98;2.40;;;;;;;;;;5056399;28;20103;-45
2022/01/03 14:03:29;;;;;;;9.48;2.25;;;;;;;;;;5056050;28;20125;-46
2022/01/03 14:06:22;;;;;;;10.82;2.17;;;;;;;;;;5056148;28;20052;-46
2022/01/03 14:08:53;;;;;;;11.00;2.08;;;;;;;;;;5053859;28;20649;-49
2022/01/03 14:11:20;;;;;;;8.70;2.20;;;;;;;;;;5059086;28;20044;-45
2022/01/03 14:13:47;;;;;;;8.23;2.25;;;;;;;;;;5053912;28;20048;-52
2022/01/03 14:16:14;;;;;;;8.73;1.88;;;;;;;;;;5057009;28;20041;-51
2022/01/03 14:18:42;;;;;;;5.28;1.42;;;;;;;;;;5055647;28;20123;-46
2022/01/03 14:21:12;;;;;;;3.85;1.52;;;;;;;;;;5057534;28;20539;-50
2022/01/03 14:23:43;;;;;;;8.10;1.77;;;;;;;;;;5055391;28;20045;-48
2022/01/03 14:26:20;;;;;;;9.82;2.20;;;;;;;;;;5054850;28;20311;-51
2022/01/03 14:28:46;;;;;;;5.57;1.73;;;;;;;;;;5057314;28;20181;-48
2022/01/03 14:31:12;;;;;;;9.40;2.55;;;;;;;;;;5053482;28;20055;-47
2022/01/03 14:33:39;;;;;;;9.23;2.47;;;;;;;;;;5053556;28;20044;-49
2022/01/03 14:36:18;;;;;;;6.78;2.03;;;;;;;;;;5052410;28;20514;-51
2022/01/03 14:38:46;;;;;;;7.28;2.45;;;;;;;;;;5051386;28;20049;-53
2022/01/03 14:41:21;;;;;;;6.47;2.17;;;;;;;;;;5055279;28;20070;-50
2022/01/03 14:44:01;;;;;;;9.05;2.05;;;;;;;;;;5054388;28;20086;-48
2022/01/03 14:46:29;;;;;;;11.27;1.92;;;;;;;;;;5055172;28;20039;-50
2022/01/03 14:48:55;;;;;;;9.25;1.98;;;;;;;;;;5056218;28;20037;-52
2022/01/03 14:51:20;;;;;;;9.07;2.88;;;;;;;;;;5053767;28;20112;-47
2022/01/03 14:53:46;;;;;;;7.72;1.92;;;;;;;;;;5054919;28;20044;-50
2022/01/03 14:56:26;;;;;;;7.78;1.75;;;;;;;;;;5054162;28;20233;-47
2022/01/03 14:59:08;;;;;;;10.88;1.95;;;;;;;;;;5054018;28;20049;-53
2022/01/03 15:01:33;;;;;;;7.63;2.17;;;;;;;;;;5051562;28;20044;-49
2022/01/03 15:03:59;;;;;;;8.40;1.80;;;;;;;;;;5053313;28;20467;-49
2022/01/03 15:06:25;;;;;;;9.02;1.70;;;;;;;;;;5052658;28;20126;-47